sensor_id;sensor_type;location;lat;lon;timestamp;temperature;humidity
6429;DHT22;3247;48.946;10.220;2022-07-10T00:00:35;16.20;99.90
6429;DHT22;3247;48.946;10.220;2022-07-10T00:03:01;15.90;99.90
6429;DHT22;3247;48.946;10.220;2022-07-10T00:05:27;15.80;99.90
6429;DHT22;3247;48.946;10.220;2022-07-10T00:07:53;15.80;99.90
6429;DHT22;3247;48.946;10.220;2022-07-10T00:10:18;15.70;99.90
6429;DHT22;3247;48.946;10.220;2022-07-10T00:12:45;15.60;99.90
6429;DHT22;3247;48.946;10.220;2022-07-10T00:15:10;15.50;99.90
6429;DHT22;3247;48.946;10.220;2022-07-10T00:17:36;15.60;99.90
6429;DHT22;3247;48.946;10.220;2022-07-10T00:20:04;15.40;99.90
6429;DHT22;3247;48.946;10.220;2022-07-10T00:22:41;15.20;99.90
6429;DHT22;3247;48.946;10.220;2022-07-10T00:25:13;15.10;99.90
6429;DHT22;3247;48.946;10.220;2022-07-10T00:27:39;15.10;99.90
6429;DHT22;3247;48.946;10.220;2022-07-10T00:30:04;15.10;99.90
6429;DHT22;3247;48.946;10.220;2022-07-10T00:32:30;14.90;99.90
6429;DHT22;3247;48.946;10.220;2022-07-10T00:34:56;14.90;99.90
6429;DHT22;3247;48.946;10.220;2022-07-10T00:37:21;14.90;99.90
6429;DHT22;3247;48.946;10.220;2022-07-10T00:39:47;14.70;99.90
6429;DHT22;3247;48.946;10.220;2022-07-10T00:42:13;14.60;99.90
6429;DHT22;3247;48.946;10.220;2022-07-10T00:44:39;14.60;99.90
6429;DHT22;3247;48.946;10.220;2022-07-10T00:47:05;14.60;99.90
6429;DHT22;3247;48.946;10.220;2022-07-10T00:49:31;14.50;99.90
6429;DHT22;3247;48.946;10.220;2022-07-10T00:52:07;14.30;99.90
6429;DHT22;3247;48.946;10.220;2022-07-10T00:54:32;14.30;99.90
6429;DHT22;3247;48.946;10.220;2022-07-10T00:56:59;14.30;99.90
6429;DHT22;3247;48.946;10.220;2022-07-10T00:59:25;14.20;99.90
6429;DHT22;3247;48.946;10.220;2022-07-10T01:01:51;14.10;99.90
6429;DHT22;3247;48.946;10.220;2022-07-10T01:04:16;14.10;99.90
6429;DHT22;3247;48.946;10.220;2022-07-10T01:06:42;14.30;99.90
6429;DHT22;3247;48.946;10.220;2022-07-10T01:09:08;14.10;99.90
6429;DHT22;3247;48.946;10.220;2022-07-10T01:11:34;14.30;99.90
6429;DHT22;3247;48.946;10.220;2022-07-10T01:14:01;14.00;99.90
6429;DHT22;3247;48.946;10.220;2022-07-10T01:16:28;13.90;99.90
6429;DHT22;3247;48.946;10.220;2022-07-10T01:18:55;13.80;99.90
6429;DHT22;3247;48.946;10.220;2022-07-10T01:24:20;13.90;99.90
6429;DHT22;3247;48.946;10.220;2022-07-10T01:26:45;13.70;99.90
6429;DHT22;3247;48.946;10.220;2022-07-10T01:29:11;13.80;99.90
6429;DHT22;3247;48.946;10.220;2022-07-10T01:31:37;13.70;99.90
6429;DHT22;3247;48.946;10.220;2022-07-10T01:34:04;13.60;99.90
6429;DHT22;3247;48.946;10.220;2022-07-10T01:36:30;13.70;99.90
6429;DHT22;3247;48.946;10.220;2022-07-10T01:38:56;13.60;99.90
6429;DHT22;3247;48.946;10.220;2022-07-10T01:41:23;13.80;99.90
6429;DHT22;3247;48.946;10.220;2022-07-10T01:43:49;13.60;99.90
6429;DHT22;3247;48.946;10.220;2022-07-10T01:46:15;13.60;99.90
6429;DHT22;3247;48.946;10.220;2022-07-10T01:48:41;13.50;99.90
6429;DHT22;3247;48.946;10.220;2022-07-10T01:51:19;13.40;99.90
6429;DHT22;3247;48.946;10.220;2022-07-10T01:53:45;13.40;99.90
6429;DHT22;3247;48.946;10.220;2022-07-10T01:56:11;13.40;99.90
6429;DHT22;3247;48.946;10.220;2022-07-10T01:58:37;13.30;99.90
6429;DHT22;3247;48.946;10.220;2022-07-10T02:01:03;13.30;99.90
6429;DHT22;3247;48.946;10.220;2022-07-10T02:03:29;13.20;99.90
6429;DHT22;3247;48.946;10.220;2022-07-10T02:06:13;13.20;99.90
6429;DHT22;3247;48.946;10.220;2022-07-10T02:08:39;13.10;99.90
6429;DHT22;3247;48.946;10.220;2022-07-10T02:11:04;13.10;99.90
6429;DHT22;3247;48.946;10.220;2022-07-10T02:13:30;13.10;99.90
6429;DHT22;3247;48.946;10.220;2022-07-10T02:15:55;13.20;99.90
6429;DHT22;3247;48.946;10.220;2022-07-10T02:18:21;13.00;99.90
6429;DHT22;3247;48.946;10.220;2022-07-10T02:20:47;13.00;99.90
6429;DHT22;3247;48.946;10.220;2022-07-10T02:26:06;12.90;99.90
6429;DHT22;3247;48.946;10.220;2022-07-10T02:28:31;12.80;99.90
6429;DHT22;3247;48.946;10.220;2022-07-10T02:30:57;12.80;99.90
6429;DHT22;3247;48.946;10.220;2022-07-10T02:33:22;12.70;99.90
6429;DHT22;3247;48.946;10.220;2022-07-10T02:35:48;12.70;99.90
6429;DHT22;3247;48.946;10.220;2022-07-10T02:38:13;12.60;99.90
6429;DHT22;3247;48.946;10.220;2022-07-10T02:40:39;12.80;99.90
6429;DHT22;3247;48.946;10.220;2022-07-10T02:43:05;12.60;99.90
6429;DHT22;3247;48.946;10.220;2022-07-10T02:45:30;12.60;99.90
6429;DHT22;3247;48.946;10.220;2022-07-10T02:47:56;12.60;99.90
6429;DHT22;3247;48.946;10.220;2022-07-10T02:50:21;12.60;99.90
6429;DHT22;3247;48.946;10.220;2022-07-10T02:52:53;12.50;99.90
6429;DHT22;3247;48.946;10.220;2022-07-10T02:55:18;12.50;99.90
6429;DHT22;3247;48.946;10.220;2022-07-10T02:57:44;12.60;99.90
6429;DHT22;3247;48.946;10.220;2022-07-10T03:00:09;12.70;99.90
6429;DHT22;3247;48.946;10.220;2022-07-10T03:02:36;12.80;99.90
6429;DHT22;3247;48.946;10.220;2022-07-10T03:05:02;12.80;99.90
6429;DHT22;3247;48.946;10.220;2022-07-10T03:07:27;12.80;99.90
6429;DHT22;3247;48.946;10.220;2022-07-10T03:09:53;12.80;99.90
6429;DHT22;3247;48.946;10.220;2022-07-10T03:12:18;12.90;99.90
6429;DHT22;3247;48.946;10.220;2022-07-10T03:14:44;13.00;99.90
6429;DHT22;3247;48.946;10.220;2022-07-10T03:17:09;13.00;99.90
6429;DHT22;3247;48.946;10.220;2022-07-10T03:19:35;13.40;99.90
6429;DHT22;3247;48.946;10.220;2022-07-10T03:22:00;13.00;99.90
6429;DHT22;3247;48.946;10.220;2022-07-10T03:24:26;13.00;99.90
6429;DHT22;3247;48.946;10.220;2022-07-10T03:26:51;13.00;99.90
6429;DHT22;3247;48.946;10.220;2022-07-10T03:29:16;13.00;99.90
6429;DHT22;3247;48.946;10.220;2022-07-10T03:31:42;13.00;99.90
6429;DHT22;3247;48.946;10.220;2022-07-10T03:34:08;12.90;99.90
6429;DHT22;3247;48.946;10.220;2022-07-10T03:36:33;12.90;99.90
6429;DHT22;3247;48.946;10.220;2022-07-10T03:38:59;13.10;99.90
6429;DHT22;3247;48.946;10.220;2022-07-10T03:41:24;12.80;99.90
6429;DHT22;3247;48.946;10.220;2022-07-10T03:43:50;12.90;99.90
6429;DHT22;3247;48.946;10.220;2022-07-10T03:46:15;12.90;99.90
6429;DHT22;3247;48.946;10.220;2022-07-10T03:48:41;12.90;99.90
6429;DHT22;3247;48.946;10.220;2022-07-10T03:51:06;13.00;99.90
6429;DHT22;3247;48.946;10.220;2022-07-10T03:53:32;12.90;99.90
6429;DHT22;3247;48.946;10.220;2022-07-10T03:55:57;12.90;99.90
6429;DHT22;3247;48.946;10.220;2022-07-10T03:58:23;13.00;99.90
6429;DHT22;3247;48.946;10.220;2022-07-10T04:00:48;13.20;99.90
6429;DHT22;3247;48.946;10.220;2022-07-10T04:03:13;13.20;99.90
6429;DHT22;3247;48.946;10.220;2022-07-10T04:05:39;13.20;99.90
6429;DHT22;3247;48.946;10.220;2022-07-10T04:08:05;13.30;99.90
6429;DHT22;3247;48.946;10.220;2022-07-10T04:10:31;13.40;99.90
6429;DHT22;3247;48.946;10.220;2022-07-10T04:12:56;13.40;99.90
6429;DHT22;3247;48.946;10.220;2022-07-10T04:15:22;13.60;99.90
6429;DHT22;3247;48.946;10.220;2022-07-10T04:17:47;14.00;99.90
6429;DHT22;3247;48.946;10.220;2022-07-10T04:20:13;14.30;99.90
6429;DHT22;3247;48.946;10.220;2022-07-10T04:25:23;15.40;99.90
6429;DHT22;3247;48.946;10.220;2022-07-10T04:27:49;15.90;99.90
6429;DHT22;3247;48.946;10.220;2022-07-10T04:30:14;16.50;99.90
6429;DHT22;3247;48.946;10.220;2022-07-10T04:32:40;16.90;99.90
6429;DHT22;3247;48.946;10.220;2022-07-10T04:35:05;17.50;99.90
6429;DHT22;3247;48.946;10.220;2022-07-10T04:37:31;17.90;99.90
6429;DHT22;3247;48.946;10.220;2022-07-10T04:39:57;18.20;99.90
6429;DHT22;3247;48.946;10.220;2022-07-10T04:42:22;18.30;99.90
6429;DHT22;3247;48.946;10.220;2022-07-10T04:44:48;18.50;99.90
6429;DHT22;3247;48.946;10.220;2022-07-10T04:47:13;18.70;99.90
6429;DHT22;3247;48.946;10.220;2022-07-10T04:49:39;18.70;99.90
6429;DHT22;3247;48.946;10.220;2022-07-10T04:52:04;19.10;99.90
6429;DHT22;3247;48.946;10.220;2022-07-10T04:54:30;19.50;99.90
6429;DHT22;3247;48.946;10.220;2022-07-10T04:56:55;19.80;99.90
6429;DHT22;3247;48.946;10.220;2022-07-10T04:59:21;19.40;99.90
6429;DHT22;3247;48.946;10.220;2022-07-10T05:01:46;18.70;99.90
6429;DHT22;3247;48.946;10.220;2022-07-10T05:04:12;18.90;99.90
6429;DHT22;3247;48.946;10.220;2022-07-10T05:06:38;17.80;99.90
6429;DHT22;3247;48.946;10.220;2022-07-10T05:09:03;17.20;99.90
6429;DHT22;3247;48.946;10.220;2022-07-10T05:11:29;16.80;99.90
6429;DHT22;3247;48.946;10.220;2022-07-10T05:13:55;16.40;99.90
6429;DHT22;3247;48.946;10.220;2022-07-10T05:16:21;16.10;99.90
6429;DHT22;3247;48.946;10.220;2022-07-10T05:18:47;15.90;99.90
6429;DHT22;3247;48.946;10.220;2022-07-10T05:21:17;15.80;99.90
6429;DHT22;3247;48.946;10.220;2022-07-10T05:23:43;15.40;99.90
6429;DHT22;3247;48.946;10.220;2022-07-10T05:26:08;15.40;99.90
6429;DHT22;3247;48.946;10.220;2022-07-10T05:28:34;15.40;99.90
6429;DHT22;3247;48.946;10.220;2022-07-10T05:30:59;15.20;99.90
6429;DHT22;3247;48.946;10.220;2022-07-10T05:33:25;15.20;99.90
6429;DHT22;3247;48.946;10.220;2022-07-10T05:35:53;15.50;99.90
6429;DHT22;3247;48.946;10.220;2022-07-10T05:38:18;15.70;99.90
6429;DHT22;3247;48.946;10.220;2022-07-10T05:40:44;15.70;99.90
6429;DHT22;3247;48.946;10.220;2022-07-10T05:43:09;15.70;99.90
6429;DHT22;3247;48.946;10.220;2022-07-10T05:45:37;15.60;99.90
6429;DHT22;3247;48.946;10.220;2022-07-10T05:48:02;15.50;99.90
6429;DHT22;3247;48.946;10.220;2022-07-10T05:50:28;15.60;99.90
6429;DHT22;3247;48.946;10.220;2022-07-10T05:52:53;15.50;99.90
6429;DHT22;3247;48.946;10.220;2022-07-10T05:55:19;15.50;99.90
6429;DHT22;3247;48.946;10.220;2022-07-10T05:57:44;15.60;99.90
6429;DHT22;3247;48.946;10.220;2022-07-10T06:00:10;15.50;99.90
6429;DHT22;3247;48.946;10.220;2022-07-10T06:02:35;15.30;99.90
6429;DHT22;3247;48.946;10.220;2022-07-10T06:05:01;14.90;99.90
6429;DHT22;3247;48.946;10.220;2022-07-10T06:07:27;14.80;99.90
6429;DHT22;3247;48.946;10.220;2022-07-10T06:09:53;14.70;99.90
6429;DHT22;3247;48.946;10.220;2022-07-10T06:12:19;14.70;99.90
6429;DHT22;3247;48.946;10.220;2022-07-10T06:14:44;14.40;99.90
6429;DHT22;3247;48.946;10.220;2022-07-10T06:17:10;14.50;99.90
6429;DHT22;3247;48.946;10.220;2022-07-10T06:19:35;14.70;99.90
6429;DHT22;3247;48.946;10.220;2022-07-10T06:22:00;14.20;99.90
6429;DHT22;3247;48.946;10.220;2022-07-10T06:24:45;14.40;99.90
6429;DHT22;3247;48.946;10.220;2022-07-10T06:27:10;14.50;99.90
6429;DHT22;3247;48.946;10.220;2022-07-10T06:29:37;14.30;99.90
6429;DHT22;3247;48.946;10.220;2022-07-10T06:32:03;14.20;99.90
6429;DHT22;3247;48.946;10.220;2022-07-10T06:34:28;14.20;99.90
6429;DHT22;3247;48.946;10.220;2022-07-10T06:36:54;15.00;99.90
6429;DHT22;3247;48.946;10.220;2022-07-10T06:39:20;14.30;99.90
6429;DHT22;3247;48.946;10.220;2022-07-10T06:41:50;14.20;99.90
6429;DHT22;3247;48.946;10.220;2022-07-10T06:44:15;14.30;99.90
6429;DHT22;3247;48.946;10.220;2022-07-10T06:46:41;14.60;99.90
6429;DHT22;3247;48.946;10.220;2022-07-10T06:49:06;14.60;99.90
6429;DHT22;3247;48.946;10.220;2022-07-10T06:51:32;14.90;99.90
6429;DHT22;3247;48.946;10.220;2022-07-10T06:53:58;15.00;99.90
6429;DHT22;3247;48.946;10.220;2022-07-10T06:56:23;15.10;99.90
6429;DHT22;3247;48.946;10.220;2022-07-10T06:58:49;15.30;99.90
6429;DHT22;3247;48.946;10.220;2022-07-10T07:01:14;15.00;99.90
6429;DHT22;3247;48.946;10.220;2022-07-10T07:03:40;15.00;99.90
6429;DHT22;3247;48.946;10.220;2022-07-10T07:06:05;15.10;99.90
6429;DHT22;3247;48.946;10.220;2022-07-10T07:08:31;15.30;99.90
6429;DHT22;3247;48.946;10.220;2022-07-10T07:10:56;16.00;99.90
6429;DHT22;3247;48.946;10.220;2022-07-10T07:13:22;15.40;99.90
6429;DHT22;3247;48.946;10.220;2022-07-10T07:15:47;15.50;99.90
6429;DHT22;3247;48.946;10.220;2022-07-10T07:18:24;15.50;99.90
6429;DHT22;3247;48.946;10.220;2022-07-10T07:21:00;16.00;99.90
6429;DHT22;3247;48.946;10.220;2022-07-10T07:23:44;15.20;99.90
6429;DHT22;3247;48.946;10.220;2022-07-10T07:26:10;15.10;99.90
6429;DHT22;3247;48.946;10.220;2022-07-10T07:28:35;15.10;99.90
6429;DHT22;3247;48.946;10.220;2022-07-10T07:31:01;14.90;99.90
6429;DHT22;3247;48.946;10.220;2022-07-10T07:33:26;14.90;99.90
6429;DHT22;3247;48.946;10.220;2022-07-10T07:35:52;14.90;99.90
6429;DHT22;3247;48.946;10.220;2022-07-10T07:38:17;14.90;99.90
6429;DHT22;3247;48.946;10.220;2022-07-10T07:40:43;15.00;99.90
6429;DHT22;3247;48.946;10.220;2022-07-10T07:43:08;15.10;99.90
6429;DHT22;3247;48.946;10.220;2022-07-10T07:45:34;15.10;99.90
6429;DHT22;3247;48.946;10.220;2022-07-10T07:47:59;15.40;99.90
6429;DHT22;3247;48.946;10.220;2022-07-10T07:50:31;15.60;99.90
6429;DHT22;3247;48.946;10.220;2022-07-10T07:53:06;15.60;99.90
6429;DHT22;3247;48.946;10.220;2022-07-10T07:55:32;15.60;99.90
6429;DHT22;3247;48.946;10.220;2022-07-10T07:58:06;15.70;99.90
6429;DHT22;3247;48.946;10.220;2022-07-10T08:00:37;15.80;99.90
6429;DHT22;3247;48.946;10.220;2022-07-10T08:03:03;15.80;99.90
6429;DHT22;3247;48.946;10.220;2022-07-10T08:05:28;16.40;99.90
6429;DHT22;3247;48.946;10.220;2022-07-10T08:07:58;16.00;99.90
6429;DHT22;3247;48.946;10.220;2022-07-10T08:10:24;16.00;99.90
6429;DHT22;3247;48.946;10.220;2022-07-10T08:12:51;16.00;99.90
6429;DHT22;3247;48.946;10.220;2022-07-10T08:15:18;16.00;99.90
6429;DHT22;3247;48.946;10.220;2022-07-10T08:17:51;15.90;99.90
6429;DHT22;3247;48.946;10.220;2022-07-10T08:20:17;16.20;99.90
6429;DHT22;3247;48.946;10.220;2022-07-10T08:22:58;17.40;99.90
6429;DHT22;3247;48.946;10.220;2022-07-10T08:25:24;17.10;99.90
6429;DHT22;3247;48.946;10.220;2022-07-10T08:27:50;17.60;99.90
6429;DHT22;3247;48.946;10.220;2022-07-10T08:30:16;17.00;99.90
6429;DHT22;3247;48.946;10.220;2022-07-10T08:32:41;17.30;99.90
6429;DHT22;3247;48.946;10.220;2022-07-10T08:35:07;17.60;99.90
6429;DHT22;3247;48.946;10.220;2022-07-10T08:37:39;18.00;99.90
6429;DHT22;3247;48.946;10.220;2022-07-10T08:40:05;17.60;99.90
6429;DHT22;3247;48.946;10.220;2022-07-10T08:42:32;18.10;99.90
6429;DHT22;3247;48.946;10.220;2022-07-10T08:44:57;18.90;99.90
6429;DHT22;3247;48.946;10.220;2022-07-10T08:47:23;19.40;99.90
6429;DHT22;3247;48.946;10.220;2022-07-10T08:49:51;19.50;99.90
6429;DHT22;3247;48.946;10.220;2022-07-10T08:52:34;19.20;99.90
6429;DHT22;3247;48.946;10.220;2022-07-10T08:55:02;18.60;99.90
6429;DHT22;3247;48.946;10.220;2022-07-10T08:57:27;19.00;99.90
6429;DHT22;3247;48.946;10.220;2022-07-10T08:59:55;19.30;99.90
6429;DHT22;3247;48.946;10.220;2022-07-10T09:02:20;19.70;99.90
6429;DHT22;3247;48.946;10.220;2022-07-10T09:04:45;20.20;99.90
6429;DHT22;3247;48.946;10.220;2022-07-10T09:07:11;20.80;99.90
6429;DHT22;3247;48.946;10.220;2022-07-10T09:09:50;21.40;99.90
6429;DHT22;3247;48.946;10.220;2022-07-10T09:12:16;21.30;99.90
6429;DHT22;3247;48.946;10.220;2022-07-10T09:14:41;21.30;99.90
6429;DHT22;3247;48.946;10.220;2022-07-10T09:17:07;21.80;99.90
6429;DHT22;3247;48.946;10.220;2022-07-10T09:19:32;22.10;99.90
6429;DHT22;3247;48.946;10.220;2022-07-10T09:24:26;20.20;99.80
6429;DHT22;3247;48.946;10.220;2022-07-10T09:27:00;20.30;99.90
6429;DHT22;3247;48.946;10.220;2022-07-10T09:29:28;20.10;99.90
6429;DHT22;3247;48.946;10.220;2022-07-10T09:31:58;21.10;99.90
6429;DHT22;3247;48.946;10.220;2022-07-10T09:39:53;22.40;97.50
6429;DHT22;3247;48.946;10.220;2022-07-10T09:44:50;22.10;98.10
6429;DHT22;3247;48.946;10.220;2022-07-10T09:47:22;23.30;96.00
6429;DHT22;3247;48.946;10.220;2022-07-10T09:49:47;23.00;95.80
6429;DHT22;3247;48.946;10.220;2022-07-10T09:52:16;22.60;96.00
6429;DHT22;3247;48.946;10.220;2022-07-10T09:54:44;22.40;95.30
6429;DHT22;3247;48.946;10.220;2022-07-10T09:57:09;21.90;94.20
6429;DHT22;3247;48.946;10.220;2022-07-10T09:59:37;21.60;95.40
6429;DHT22;3247;48.946;10.220;2022-07-10T10:02:03;21.60;94.60
6429;DHT22;3247;48.946;10.220;2022-07-10T10:04:30;21.10;94.40
6429;DHT22;3247;48.946;10.220;2022-07-10T10:06:58;21.20;94.90
6429;DHT22;3247;48.946;10.220;2022-07-10T10:09:37;22.50;94.60
6429;DHT22;3247;48.946;10.220;2022-07-10T10:12:47;22.10;94.50
6429;DHT22;3247;48.946;10.220;2022-07-10T10:14:52;21.80;94.10
6429;DHT22;3247;48.946;10.220;2022-07-10T10:17:19;22.20;93.60
6429;DHT22;3247;48.946;10.220;2022-07-10T10:19:46;22.90;93.90
6429;DHT22;3247;48.946;10.220;2022-07-10T10:22:32;22.70;94.20
6429;DHT22;3247;48.946;10.220;2022-07-10T10:24:58;21.80;92.40
6429;DHT22;3247;48.946;10.220;2022-07-10T10:27:24;21.50;93.50
6429;DHT22;3247;48.946;10.220;2022-07-10T10:29:50;21.00;92.50
6429;DHT22;3247;48.946;10.220;2022-07-10T10:32:16;20.80;93.80
6429;DHT22;3247;48.946;10.220;2022-07-10T10:34:42;21.40;93.70
6429;DHT22;3247;48.946;10.220;2022-07-10T10:39:53;21.10;92.80
6429;DHT22;3247;48.946;10.220;2022-07-10T10:58:27;21.00;94.50
6429;DHT22;3247;48.946;10.220;2022-07-10T11:00:52;21.40;94.10
6429;DHT22;3247;48.946;10.220;2022-07-10T11:03:27;22.00;93.80
6429;DHT22;3247;48.946;10.220;2022-07-10T11:05:52;22.30;93.10
6429;DHT22;3247;48.946;10.220;2022-07-10T11:11:26;21.00;93.10
6429;DHT22;3247;48.946;10.220;2022-07-10T11:13:48;21.30;93.50
6429;DHT22;3247;48.946;10.220;2022-07-10T11:16:14;21.60;92.60
6429;DHT22;3247;48.946;10.220;2022-07-10T11:18:40;22.00;93.10
6429;DHT22;3247;48.946;10.220;2022-07-10T11:21:05;22.00;92.30
6429;DHT22;3247;48.946;10.220;2022-07-10T11:28:58;22.20;92.20
6429;DHT22;3247;48.946;10.220;2022-07-10T11:31:25;22.70;90.50
6429;DHT22;3247;48.946;10.220;2022-07-10T11:33:52;22.80;91.40
6429;DHT22;3247;48.946;10.220;2022-07-10T11:36:18;22.30;90.00
6429;DHT22;3247;48.946;10.220;2022-07-10T11:38:45;21.90;90.90
6429;DHT22;3247;48.946;10.220;2022-07-10T11:43:45;20.90;92.00
6429;DHT22;3247;48.946;10.220;2022-07-10T11:46:11;21.00;92.00
6429;DHT22;3247;48.946;10.220;2022-07-10T11:48:39;21.00;91.20
6429;DHT22;3247;48.946;10.220;2022-07-10T11:51:18;21.10;91.50
6429;DHT22;3247;48.946;10.220;2022-07-10T11:53:52;20.80;92.40
6429;DHT22;3247;48.946;10.220;2022-07-10T11:56:18;21.00;91.60
6429;DHT22;3247;48.946;10.220;2022-07-10T11:58:52;20.60;91.00
6429;DHT22;3247;48.946;10.220;2022-07-10T12:01:18;20.00;91.60
6429;DHT22;3247;48.946;10.220;2022-07-10T12:03:44;19.90;92.40
6429;DHT22;3247;48.946;10.220;2022-07-10T12:06:10;19.90;92.20
6429;DHT22;3247;48.946;10.220;2022-07-10T12:08:42;20.10;91.90
6429;DHT22;3247;48.946;10.220;2022-07-10T12:11:17;20.50;91.70
6429;DHT22;3247;48.946;10.220;2022-07-10T12:13:44;20.80;91.80
6429;DHT22;3247;48.946;10.220;2022-07-10T12:16:10;21.00;91.20
6429;DHT22;3247;48.946;10.220;2022-07-10T12:18:35;21.20;91.50
6429;DHT22;3247;48.946;10.220;2022-07-10T12:21:06;21.00;90.70
6429;DHT22;3247;48.946;10.220;2022-07-10T12:23:33;21.00;91.30
6429;DHT22;3247;48.946;10.220;2022-07-10T12:26:00;21.10;92.00
6429;DHT22;3247;48.946;10.220;2022-07-10T12:28:26;21.30;91.50
6429;DHT22;3247;48.946;10.220;2022-07-10T12:30:52;21.50;90.20
6429;DHT22;3247;48.946;10.220;2022-07-10T12:33:19;21.40;90.50
6429;DHT22;3247;48.946;10.220;2022-07-10T12:38:20;22.30;90.10
6429;DHT22;3247;48.946;10.220;2022-07-10T12:40:46;22.00;90.40
6429;DHT22;3247;48.946;10.220;2022-07-10T12:43:12;21.80;90.80
6429;DHT22;3247;48.946;10.220;2022-07-10T12:45:38;21.60;90.30
6429;DHT22;3247;48.946;10.220;2022-07-10T12:48:04;21.10;90.00
6429;DHT22;3247;48.946;10.220;2022-07-10T12:50:31;21.30;91.20
6429;DHT22;3247;48.946;10.220;2022-07-10T12:53:06;21.10;90.60
6429;DHT22;3247;48.946;10.220;2022-07-10T12:55:35;21.40;90.60
6429;DHT22;3247;48.946;10.220;2022-07-10T12:58:05;21.40;90.70
6429;DHT22;3247;48.946;10.220;2022-07-10T13:00:32;21.20;89.30
6429;DHT22;3247;48.946;10.220;2022-07-10T13:02:59;21.20;90.30
6429;DHT22;3247;48.946;10.220;2022-07-10T13:05:26;21.30;90.70
6429;DHT22;3247;48.946;10.220;2022-07-10T13:07:52;21.50;90.60
6429;DHT22;3247;48.946;10.220;2022-07-10T13:10:18;21.80;90.50
6429;DHT22;3247;48.946;10.220;2022-07-10T13:12:43;21.20;90.40
6429;DHT22;3247;48.946;10.220;2022-07-10T13:15:09;21.00;90.70
6429;DHT22;3247;48.946;10.220;2022-07-10T13:17:42;20.60;90.80
6429;DHT22;3247;48.946;10.220;2022-07-10T13:20:08;20.10;90.80
6429;DHT22;3247;48.946;10.220;2022-07-10T13:22:34;20.00;91.00
6429;DHT22;3247;48.946;10.220;2022-07-10T13:24:59;20.30;91.60
6429;DHT22;3247;48.946;10.220;2022-07-10T13:27:24;20.50;91.80
6429;DHT22;3247;48.946;10.220;2022-07-10T13:29:50;20.90;91.80
6429;DHT22;3247;48.946;10.220;2022-07-10T13:32:15;21.40;90.50
6429;DHT22;3247;48.946;10.220;2022-07-10T13:34:41;21.90;90.90
6429;DHT22;3247;48.946;10.220;2022-07-10T13:37:07;21.90;90.70
6429;DHT22;3247;48.946;10.220;2022-07-10T13:39:32;22.00;90.00
6429;DHT22;3247;48.946;10.220;2022-07-10T13:41:58;21.60;90.00
6429;DHT22;3247;48.946;10.220;2022-07-10T13:44:23;20.90;89.80
6429;DHT22;3247;48.946;10.220;2022-07-10T13:46:49;20.60;89.60
6429;DHT22;3247;48.946;10.220;2022-07-10T13:49:16;20.30;90.40
6429;DHT22;3247;48.946;10.220;2022-07-10T13:51:42;19.90;90.90
6429;DHT22;3247;48.946;10.220;2022-07-10T13:54:07;19.60;91.40
6429;DHT22;3247;48.946;10.220;2022-07-10T13:56:33;19.60;91.60
6429;DHT22;3247;48.946;10.220;2022-07-10T13:58:58;19.90;91.40
6429;DHT22;3247;48.946;10.220;2022-07-10T14:01:24;19.90;91.00
6429;DHT22;3247;48.946;10.220;2022-07-10T14:03:49;19.70;91.30
6429;DHT22;3247;48.946;10.220;2022-07-10T14:06:15;19.80;92.40
6429;DHT22;3247;48.946;10.220;2022-07-10T14:08:40;20.00;91.90
6429;DHT22;3247;48.946;10.220;2022-07-10T14:11:06;20.10;91.30
6429;DHT22;3247;48.946;10.220;2022-07-10T14:13:31;20.20;90.60
6429;DHT22;3247;48.946;10.220;2022-07-10T14:15:57;20.10;91.90
6429;DHT22;3247;48.946;10.220;2022-07-10T14:18:23;20.20;91.20
6429;DHT22;3247;48.946;10.220;2022-07-10T14:21:05;20.50;91.20
6429;DHT22;3247;48.946;10.220;2022-07-10T14:23:34;20.50;91.00
6429;DHT22;3247;48.946;10.220;2022-07-10T14:26:00;20.70;90.70
6429;DHT22;3247;48.946;10.220;2022-07-10T14:28:26;20.70;90.40
6429;DHT22;3247;48.946;10.220;2022-07-10T14:30:51;20.90;90.40
6429;DHT22;3247;48.946;10.220;2022-07-10T14:33:20;20.90;90.20
6429;DHT22;3247;48.946;10.220;2022-07-10T14:35:45;21.00;91.10
6429;DHT22;3247;48.946;10.220;2022-07-10T14:38:11;21.00;90.80
6429;DHT22;3247;48.946;10.220;2022-07-10T14:40:36;21.00;89.90
6429;DHT22;3247;48.946;10.220;2022-07-10T14:43:02;21.30;90.80
6429;DHT22;3247;48.946;10.220;2022-07-10T14:45:28;21.20;90.30
6429;DHT22;3247;48.946;10.220;2022-07-10T14:47:53;21.30;90.40
6429;DHT22;3247;48.946;10.220;2022-07-10T14:50:20;21.00;90.10
6429;DHT22;3247;48.946;10.220;2022-07-10T14:52:46;20.80;89.30
6429;DHT22;3247;48.946;10.220;2022-07-10T14:55:11;20.40;90.60
6429;DHT22;3247;48.946;10.220;2022-07-10T14:57:37;20.20;90.30
6429;DHT22;3247;48.946;10.220;2022-07-10T15:00:03;19.80;91.10
6429;DHT22;3247;48.946;10.220;2022-07-10T15:02:29;19.70;91.30
6429;DHT22;3247;48.946;10.220;2022-07-10T15:04:54;19.60;91.20
6429;DHT22;3247;48.946;10.220;2022-07-10T15:07:20;19.70;91.00
6429;DHT22;3247;48.946;10.220;2022-07-10T15:09:45;19.70;91.20
6429;DHT22;3247;48.946;10.220;2022-07-10T15:12:11;19.90;91.60
6429;DHT22;3247;48.946;10.220;2022-07-10T15:14:36;20.20;90.70
6429;DHT22;3247;48.946;10.220;2022-07-10T15:17:02;20.40;90.50
6429;DHT22;3247;48.946;10.220;2022-07-10T15:19:27;20.40;89.70
6429;DHT22;3247;48.946;10.220;2022-07-10T15:21:53;20.40;89.80
6429;DHT22;3247;48.946;10.220;2022-07-10T15:24:18;20.30;90.30
6429;DHT22;3247;48.946;10.220;2022-07-10T15:26:44;20.60;90.50
6429;DHT22;3247;48.946;10.220;2022-07-10T15:29:10;21.00;90.20
6429;DHT22;3247;48.946;10.220;2022-07-10T15:31:36;21.10;90.10
6429;DHT22;3247;48.946;10.220;2022-07-10T15:34:06;21.00;88.80
6429;DHT22;3247;48.946;10.220;2022-07-10T15:36:32;20.60;89.20
6429;DHT22;3247;48.946;10.220;2022-07-10T15:38:58;20.50;90.60
6429;DHT22;3247;48.946;10.220;2022-07-10T15:41:23;20.70;90.10
6429;DHT22;3247;48.946;10.220;2022-07-10T15:43:49;20.80;89.30
6429;DHT22;3247;48.946;10.220;2022-07-10T15:46:14;21.00;90.30
6429;DHT22;3247;48.946;10.220;2022-07-10T15:48:40;21.20;89.20
6429;DHT22;3247;48.946;10.220;2022-07-10T15:51:06;21.10;88.80
6429;DHT22;3247;48.946;10.220;2022-07-10T15:53:32;20.90;89.90
6429;DHT22;3247;48.946;10.220;2022-07-10T15:55:57;20.70;89.70
6429;DHT22;3247;48.946;10.220;2022-07-10T15:58:23;20.60;89.90
6429;DHT22;3247;48.946;10.220;2022-07-10T16:00:48;20.60;90.00
6429;DHT22;3247;48.946;10.220;2022-07-10T16:03:13;20.30;89.90
6429;DHT22;3247;48.946;10.220;2022-07-10T16:05:39;20.00;89.80
6429;DHT22;3247;48.946;10.220;2022-07-10T16:08:05;20.00;90.60
6429;DHT22;3247;48.946;10.220;2022-07-10T16:10:30;19.90;90.50
6429;DHT22;3247;48.946;10.220;2022-07-10T16:12:56;19.90;90.30
6429;DHT22;3247;48.946;10.220;2022-07-10T16:15:21;20.00;90.10
6429;DHT22;3247;48.946;10.220;2022-07-10T16:17:47;19.80;89.80
6429;DHT22;3247;48.946;10.220;2022-07-10T16:20:12;19.70;90.70
6429;DHT22;3247;48.946;10.220;2022-07-10T16:22:38;19.60;90.40
6429;DHT22;3247;48.946;10.220;2022-07-10T16:25:04;19.60;90.70
6429;DHT22;3247;48.946;10.220;2022-07-10T16:28:02;19.70;91.00
6429;DHT22;3247;48.946;10.220;2022-07-10T16:30:29;19.40;90.70
6429;DHT22;3247;48.946;10.220;2022-07-10T16:32:55;19.40;91.10